sensor_id;sensor_type;location;lat;lon;timestamp;P1;durP1;ratioP1;P2;durP2;ratioP2
21810;SDS011;11067;48.788;9.208;2023-07-09T00:01:35;7.68;;;3.90;;
21810;SDS011;11067;48.788;9.208;2023-07-09T00:04:02;7.20;;;3.50;;
21810;SDS011;11067;48.788;9.208;2023-07-09T00:06:28;4.80;;;3.43;;
21810;SDS011;11067;48.788;9.208;2023-07-09T00:08:54;6.43;;;3.67;;
21810;SDS011;11067;48.788;9.208;2023-07-09T00:11:20;7.33;;;3.47;;
21810;SDS011;11067;48.788;9.208;2023-07-09T00:13:46;4.38;;;3.45;;
21810;SDS011;11067;48.788;9.208;2023-07-09T00:16:17;6.57;;;3.45;;
21810;SDS011;11067;48.788;9.208;2023-07-09T00:18:44;6.40;;;3.60;;
21810;SDS011;11067;48.788;9.208;2023-07-09T00:21:13;6.15;;;3.40;;
21810;SDS011;11067;48.788;9.208;2023-07-09T00:23:39;6.88;;;3.83;;
21810;SDS011;11067;48.788;9.208;2023-07-09T00:26:10;5.55;;;3.63;;
21810;SDS011;11067;48.788;9.208;2023-07-09T00:28:38;5.40;;;3.55;;
21810;SDS011;11067;48.788;9.208;2023-07-09T00:31:04;6.40;;;3.72;;
21810;SDS011;11067;48.788;9.208;2023-07-09T00:33:30;5.78;;;3.60;;
21810;SDS011;11067;48.788;9.208;2023-07-09T00:35:56;4.57;;;3.50;;
21810;SDS011;11067;48.788;9.208;2023-07-09T00:38:23;9.75;;;3.80;;
21810;SDS011;11067;48.788;9.208;2023-07-09T00:41:00;6.15;;;3.63;;
21810;SDS011;11067;48.788;9.208;2023-07-09T00:43:33;8.07;;;3.90;;
21810;SDS011;11067;48.788;9.208;2023-07-09T00:48:54;7.30;;;3.97;;
21810;SDS011;11067;48.788;9.208;2023-07-09T00:51:22;5.93;;;3.63;;
21810;SDS011;11067;48.788;9.208;2023-07-09T00:53:50;8.97;;;3.60;;
21810;SDS011;11067;48.788;9.208;2023-07-09T00:56:24;7.22;;;3.63;;
21810;SDS011;11067;48.788;9.208;2023-07-09T00:58:52;7.18;;;3.55;;
21810;SDS011;11067;48.788;9.208;2023-07-09T01:01:19;6.05;;;3.67;;
21810;SDS011;11067;48.788;9.208;2023-07-09T01:03:46;6.28;;;3.58;;
21810;SDS011;11067;48.788;9.208;2023-07-09T01:06:12;6.77;;;3.17;;
21810;SDS011;11067;48.788;9.208;2023-07-09T01:08:39;4.10;;;3.25;;
21810;SDS011;11067;48.788;9.208;2023-07-09T01:11:15;7.43;;;3.88;;
21810;SDS011;11067;48.788;9.208;2023-07-09T01:13:45;7.38;;;3.78;;
21810;SDS011;11067;48.788;9.208;2023-07-09T01:16:11;7.47;;;3.70;;
21810;SDS011;11067;48.788;9.208;2023-07-09T01:18:37;9.50;;;3.88;;
21810;SDS011;11067;48.788;9.208;2023-07-09T01:21:07;5.95;;;3.30;;
21810;SDS011;11067;48.788;9.208;2023-07-09T01:23:44;4.68;;;3.47;;
21810;SDS011;11067;48.788;9.208;2023-07-09T01:26:11;6.15;;;3.50;;
21810;SDS011;11067;48.788;9.208;2023-07-09T01:28:37;5.78;;;3.75;;
21810;SDS011;11067;48.788;9.208;2023-07-09T01:31:06;4.82;;;3.63;;
21810;SDS011;11067;48.788;9.208;2023-07-09T01:33:32;6.97;;;3.65;;
21810;SDS011;11067;48.788;9.208;2023-07-09T01:35:58;8.80;;;4.05;;
21810;SDS011;11067;48.788;9.208;2023-07-09T01:38:25;7.63;;;4.25;;
21810;SDS011;11067;48.788;9.208;2023-07-09T01:40:55;5.45;;;3.47;;
21810;SDS011;11067;48.788;9.208;2023-07-09T01:43:21;5.75;;;3.88;;
21810;SDS011;11067;48.788;9.208;2023-07-09T01:45:47;9.45;;;3.80;;
21810;SDS011;11067;48.788;9.208;2023-07-09T01:48:15;6.03;;;3.80;;
21810;SDS011;11067;48.788;9.208;2023-07-09T01:50:41;7.25;;;3.58;;
21810;SDS011;11067;48.788;9.208;2023-07-09T01:53:08;6.70;;;3.73;;
21810;SDS011;11067;48.788;9.208;2023-07-09T01:55:34;7.90;;;3.85;;
21810;SDS011;11067;48.788;9.208;2023-07-09T01:58:00;5.77;;;3.63;;
21810;SDS011;11067;48.788;9.208;2023-07-09T02:00:30;5.75;;;3.70;;
21810;SDS011;11067;48.788;9.208;2023-07-09T02:02:56;6.63;;;4.30;;
21810;SDS011;11067;48.788;9.208;2023-07-09T02:05:23;10.05;;;4.38;;
21810;SDS011;11067;48.788;9.208;2023-07-09T02:07:49;6.38;;;3.90;;
21810;SDS011;11067;48.788;9.208;2023-07-09T02:10:16;7.80;;;4.05;;
21810;SDS011;11067;48.788;9.208;2023-07-09T02:12:42;5.93;;;3.83;;
21810;SDS011;11067;48.788;9.208;2023-07-09T02:15:08;7.65;;;3.80;;
21810;SDS011;11067;48.788;9.208;2023-07-09T02:17:34;6.50;;;3.80;;
21810;SDS011;11067;48.788;9.208;2023-07-09T02:20:00;12.98;;;4.30;;
21810;SDS011;11067;48.788;9.208;2023-07-09T02:22:26;7.15;;;4.07;;
21810;SDS011;11067;48.788;9.208;2023-07-09T02:24:52;6.25;;;3.95;;
21810;SDS011;11067;48.788;9.208;2023-07-09T02:27:18;6.28;;;3.75;;
21810;SDS011;11067;48.788;9.208;2023-07-09T02:29:44;6.60;;;3.65;;
21810;SDS011;11067;48.788;9.208;2023-07-09T02:32:13;7.05;;;4.30;;
21810;SDS011;11067;48.788;9.208;2023-07-09T02:34:42;6.67;;;3.90;;
21810;SDS011;11067;48.788;9.208;2023-07-09T02:37:08;6.35;;;3.80;;
21810;SDS011;11067;48.788;9.208;2023-07-09T02:39:34;6.25;;;3.58;;
21810;SDS011;11067;48.788;9.208;2023-07-09T02:42:00;7.85;;;4.05;;
21810;SDS011;11067;48.788;9.208;2023-07-09T02:44:26;7.68;;;3.33;;
21810;SDS011;11067;48.788;9.208;2023-07-09T02:46:52;5.38;;;4.00;;
21810;SDS011;11067;48.788;9.208;2023-07-09T02:49:18;6.70;;;4.15;;
21810;SDS011;11067;48.788;9.208;2023-07-09T02:51:44;5.55;;;3.70;;
21810;SDS011;11067;48.788;9.208;2023-07-09T02:54:10;7.27;;;4.03;;
21810;SDS011;11067;48.788;9.208;2023-07-09T02:56:36;11.03;;;3.60;;
21810;SDS011;11067;48.788;9.208;2023-07-09T02:59:02;7.00;;;3.80;;
21810;SDS011;11067;48.788;9.208;2023-07-09T03:01:28;5.70;;;3.80;;
21810;SDS011;11067;48.788;9.208;2023-07-09T03:03:54;4.95;;;3.90;;
21810;SDS011;11067;48.788;9.208;2023-07-09T03:06:20;9.77;;;4.17;;
21810;SDS011;11067;48.788;9.208;2023-07-09T03:08:46;6.40;;;3.78;;
21810;SDS011;11067;48.788;9.208;2023-07-09T03:11:13;5.82;;;3.90;;
21810;SDS011;11067;48.788;9.208;2023-07-09T03:13:39;7.83;;;3.80;;
21810;SDS011;11067;48.788;9.208;2023-07-09T03:16:05;6.50;;;4.07;;
21810;SDS011;11067;48.788;9.208;2023-07-09T03:18:31;5.57;;;3.90;;
21810;SDS011;11067;48.788;9.208;2023-07-09T03:20:57;6.65;;;4.20;;
21810;SDS011;11067;48.788;9.208;2023-07-09T03:23:23;7.20;;;4.10;;
21810;SDS011;11067;48.788;9.208;2023-07-09T03:25:49;9.43;;;3.90;;
21810;SDS011;11067;48.788;9.208;2023-07-09T03:28:15;7.03;;;4.10;;
21810;SDS011;11067;48.788;9.208;2023-07-09T03:30:45;6.47;;;3.70;;
21810;SDS011;11067;48.788;9.208;2023-07-09T03:33:11;6.25;;;3.70;;
21810;SDS011;11067;48.788;9.208;2023-07-09T03:35:37;10.50;;;4.22;;
21810;SDS011;11067;48.788;9.208;2023-07-09T03:38:04;6.63;;;3.97;;
21810;SDS011;11067;48.788;9.208;2023-07-09T03:40:31;7.35;;;3.88;;
21810;SDS011;11067;48.788;9.208;2023-07-09T03:42:57;7.10;;;4.00;;
21810;SDS011;11067;48.788;9.208;2023-07-09T03:45:23;7.97;;;3.85;;
21810;SDS011;11067;48.788;9.208;2023-07-09T03:47:49;9.23;;;4.00;;
21810;SDS011;11067;48.788;9.208;2023-07-09T03:50:15;8.18;;;4.32;;
21810;SDS011;11067;48.788;9.208;2023-07-09T03:52:41;6.63;;;3.90;;
21810;SDS011;11067;48.788;9.208;2023-07-09T03:55:07;5.35;;;3.85;;
21810;SDS011;11067;48.788;9.208;2023-07-09T03:57:33;6.72;;;3.88;;
21810;SDS011;11067;48.788;9.208;2023-07-09T04:00:00;9.10;;;4.30;;
21810;SDS011;11067;48.788;9.208;2023-07-09T04:02:26;5.28;;;3.80;;
21810;SDS011;11067;48.788;9.208;2023-07-09T04:04:52;7.15;;;4.22;;
21810;SDS011;11067;48.788;9.208;2023-07-09T04:07:18;5.10;;;3.60;;
21810;SDS011;11067;48.788;9.208;2023-07-09T04:09:44;6.25;;;3.95;;
21810;SDS011;11067;48.788;9.208;2023-07-09T04:12:10;6.25;;;3.95;;
21810;SDS011;11067;48.788;9.208;2023-07-09T04:14:36;5.65;;;3.92;;
21810;SDS011;11067;48.788;9.208;2023-07-09T04:17:02;7.32;;;4.18;;
21810;SDS011;11067;48.788;9.208;2023-07-09T04:19:28;7.03;;;4.18;;
21810;SDS011;11067;48.788;9.208;2023-07-09T04:21:54;5.45;;;3.95;;
21810;SDS011;11067;48.788;9.208;2023-07-09T04:24:20;5.57;;;3.72;;
21810;SDS011;11067;48.788;9.208;2023-07-09T04:26:47;8.60;;;3.95;;
21810;SDS011;11067;48.788;9.208;2023-07-09T04:29:13;6.70;;;4.47;;
21810;SDS011;11067;48.788;9.208;2023-07-09T04:31:39;6.03;;;4.28;;
21810;SDS011;11067;48.788;9.208;2023-07-09T04:34:05;7.00;;;4.00;;
21810;SDS011;11067;48.788;9.208;2023-07-09T04:36:31;4.93;;;3.75;;
21810;SDS011;11067;48.788;9.208;2023-07-09T04:38:57;6.03;;;4.15;;
21810;SDS011;11067;48.788;9.208;2023-07-09T04:41:23;7.78;;;3.95;;
21810;SDS011;11067;48.788;9.208;2023-07-09T04:43:49;6.60;;;3.67;;
21810;SDS011;11067;48.788;9.208;2023-07-09T04:46:15;7.88;;;3.78;;
21810;SDS011;11067;48.788;9.208;2023-07-09T04:48:41;6.40;;;3.88;;
21810;SDS011;11067;48.788;9.208;2023-07-09T04:51:08;6.68;;;3.90;;
21810;SDS011;11067;48.788;9.208;2023-07-09T04:53:34;5.97;;;3.90;;
21810;SDS011;11067;48.788;9.208;2023-07-09T04:56:00;7.28;;;4.28;;
21810;SDS011;11067;48.788;9.208;2023-07-09T04:58:27;10.07;;;4.43;;
21810;SDS011;11067;48.788;9.208;2023-07-09T05:00:56;6.45;;;3.95;;
21810;SDS011;11067;48.788;9.208;2023-07-09T05:03:22;7.83;;;3.87;;
21810;SDS011;11067;48.788;9.208;2023-07-09T05:05:48;8.48;;;3.88;;
21810;SDS011;11067;48.788;9.208;2023-07-09T05:08:14;8.15;;;3.90;;
21810;SDS011;11067;48.788;9.208;2023-07-09T05:10:44;6.90;;;3.80;;
21810;SDS011;11067;48.788;9.208;2023-07-09T05:13:11;7.55;;;4.25;;
21810;SDS011;11067;48.788;9.208;2023-07-09T05:15:39;5.90;;;3.53;;
21810;SDS011;11067;48.788;9.208;2023-07-09T05:18:05;4.95;;;3.65;;
21810;SDS011;11067;48.788;9.208;2023-07-09T05:20:32;5.78;;;3.60;;
21810;SDS011;11067;48.788;9.208;2023-07-09T05:22:58;6.38;;;3.63;;
21810;SDS011;11067;48.788;9.208;2023-07-09T05:25:24;6.03;;;3.77;;
21810;SDS011;11067;48.788;9.208;2023-07-09T05:27:50;6.90;;;3.95;;
21810;SDS011;11067;48.788;9.208;2023-07-09T05:30:17;5.32;;;3.55;;
21810;SDS011;11067;48.788;9.208;2023-07-09T05:32:43;5.43;;;3.83;;
21810;SDS011;11067;48.788;9.208;2023-07-09T05:35:09;6.05;;;4.20;;
21810;SDS011;11067;48.788;9.208;2023-07-09T05:37:38;7.05;;;3.80;;
21810;SDS011;11067;48.788;9.208;2023-07-09T05:40:07;6.10;;;3.63;;
21810;SDS011;11067;48.788;9.208;2023-07-09T05:42:34;7.15;;;3.88;;
21810;SDS011;11067;48.788;9.208;2023-07-09T05:45:00;5.82;;;3.83;;
21810;SDS011;11067;48.788;9.208;2023-07-09T05:47:26;6.57;;;4.15;;
21810;SDS011;11067;48.788;9.208;2023-07-09T05:49:52;6.50;;;3.85;;
21810;SDS011;11067;48.788;9.208;2023-07-09T05:52:18;6.53;;;4.27;;
21810;SDS011;11067;48.788;9.208;2023-07-09T05:54:44;5.43;;;3.67;;
21810;SDS011;11067;48.788;9.208;2023-07-09T05:57:10;5.18;;;3.80;;
21810;SDS011;11067;48.788;9.208;2023-07-09T05:59:37;6.03;;;3.95;;
21810;SDS011;11067;48.788;9.208;2023-07-09T06:02:03;5.53;;;3.63;;
21810;SDS011;11067;48.788;9.208;2023-07-09T06:04:29;4.65;;;3.65;;
21810;SDS011;11067;48.788;9.208;2023-07-09T06:06:58;5.55;;;3.80;;
21810;SDS011;11067;48.788;9.208;2023-07-09T06:09:24;7.70;;;3.80;;
21810;SDS011;11067;48.788;9.208;2023-07-09T06:11:50;5.85;;;3.90;;
21810;SDS011;11067;48.788;9.208;2023-07-09T06:14:16;7.65;;;3.85;;
21810;SDS011;11067;48.788;9.208;2023-07-09T06:16:43;6.03;;;3.70;;
21810;SDS011;11067;48.788;9.208;2023-07-09T06:19:09;6.72;;;4.10;;
21810;SDS011;11067;48.788;9.208;2023-07-09T06:21:35;5.83;;;4.07;;
21810;SDS011;11067;48.788;9.208;2023-07-09T06:24:01;7.45;;;3.60;;
21810;SDS011;11067;48.788;9.208;2023-07-09T06:26:27;6.38;;;4.05;;
21810;SDS011;11067;48.788;9.208;2023-07-09T06:28:53;6.47;;;4.05;;
21810;SDS011;11067;48.788;9.208;2023-07-09T06:31:19;8.40;;;4.18;;
21810;SDS011;11067;48.788;9.208;2023-07-09T06:33:46;4.85;;;3.58;;
21810;SDS011;11067;48.788;9.208;2023-07-09T06:36:13;6.73;;;3.90;;
21810;SDS011;11067;48.788;9.208;2023-07-09T06:38:38;5.20;;;3.80;;
21810;SDS011;11067;48.788;9.208;2023-07-09T06:41:04;8.70;;;4.03;;
21810;SDS011;11067;48.788;9.208;2023-07-09T06:43:30;8.23;;;4.20;;
21810;SDS011;11067;48.788;9.208;2023-07-09T06:45:58;7.40;;;3.90;;
21810;SDS011;11067;48.788;9.208;2023-07-09T06:48:25;7.37;;;4.00;;
21810;SDS011;11067;48.788;9.208;2023-07-09T06:50:51;7.35;;;4.50;;
21810;SDS011;11067;48.788;9.208;2023-07-09T06:53:18;7.13;;;4.00;;
21810;SDS011;11067;48.788;9.208;2023-07-09T06:55:45;6.53;;;3.97;;
21810;SDS011;11067;48.788;9.208;2023-07-09T06:58:11;5.20;;;4.00;;
21810;SDS011;11067;48.788;9.208;2023-07-09T07:00:37;8.57;;;4.10;;
21810;SDS011;11067;48.788;9.208;2023-07-09T07:03:03;6.63;;;4.00;;
21810;SDS011;11067;48.788;9.208;2023-07-09T07:05:29;7.40;;;4.15;;
21810;SDS011;11067;48.788;9.208;2023-07-09T07:07:56;7.82;;;3.88;;
21810;SDS011;11067;48.788;9.208;2023-07-09T07:10:22;5.80;;;3.83;;
21810;SDS011;11067;48.788;9.208;2023-07-09T07:12:48;8.18;;;4.05;;
21810;SDS011;11067;48.788;9.208;2023-07-09T07:15:16;5.38;;;3.88;;
21810;SDS011;11067;48.788;9.208;2023-07-09T07:17:42;7.03;;;3.65;;
21810;SDS011;11067;48.788;9.208;2023-07-09T07:20:09;6.68;;;3.85;;
21810;SDS011;11067;48.788;9.208;2023-07-09T07:22:35;6.13;;;3.85;;
21810;SDS011;11067;48.788;9.208;2023-07-09T07:25:02;6.70;;;4.07;;
21810;SDS011;11067;48.788;9.208;2023-07-09T07:27:28;6.07;;;3.80;;
21810;SDS011;11067;48.788;9.208;2023-07-09T07:29:55;7.72;;;4.03;;
21810;SDS011;11067;48.788;9.208;2023-07-09T07:32:24;6.13;;;3.95;;
21810;SDS011;11067;48.788;9.208;2023-07-09T07:34:50;8.68;;;4.20;;
21810;SDS011;11067;48.788;9.208;2023-07-09T07:37:18;6.85;;;4.13;;
21810;SDS011;11067;48.788;9.208;2023-07-09T07:39:47;8.43;;;4.22;;
21810;SDS011;11067;48.788;9.208;2023-07-09T07:42:13;6.50;;;3.97;;
21810;SDS011;11067;48.788;9.208;2023-07-09T07:44:39;7.72;;;4.07;;
21810;SDS011;11067;48.788;9.208;2023-07-09T07:47:05;5.20;;;3.80;;
21810;SDS011;11067;48.788;9.208;2023-07-09T07:49:32;5.47;;;3.95;;
21810;SDS011;11067;48.788;9.208;2023-07-09T07:51:58;7.68;;;4.00;;
21810;SDS011;11067;48.788;9.208;2023-07-09T07:54:28;8.52;;;4.00;;
21810;SDS011;11067;48.788;9.208;2023-07-09T07:56:54;6.07;;;4.10;;
21810;SDS011;11067;48.788;9.208;2023-07-09T07:59:20;6.20;;;3.88;;
21810;SDS011;11067;48.788;9.208;2023-07-09T08:01:46;5.55;;;3.88;;
21810;SDS011;11067;48.788;9.208;2023-07-09T08:04:13;7.70;;;4.00;;
21810;SDS011;11067;48.788;9.208;2023-07-09T08:06:39;5.25;;;4.00;;
21810;SDS011;11067;48.788;9.208;2023-07-09T08:09:05;7.15;;;4.13;;
21810;SDS011;11067;48.788;9.208;2023-07-09T08:11:31;7.33;;;4.00;;
21810;SDS011;11067;48.788;9.208;2023-07-09T08:13:57;6.88;;;4.10;;
21810;SDS011;11067;48.788;9.208;2023-07-09T08:16:23;10.32;;;4.13;;
21810;SDS011;11067;48.788;9.208;2023-07-09T08:18:49;6.20;;;4.10;;
21810;SDS011;11067;48.788;9.208;2023-07-09T08:21:17;6.10;;;3.75;;
21810;SDS011;11067;48.788;9.208;2023-07-09T08:23:43;7.00;;;4.05;;
21810;SDS011;11067;48.788;9.208;2023-07-09T08:26:09;7.63;;;3.72;;
21810;SDS011;11067;48.788;9.208;2023-07-09T08:28:35;7.30;;;3.90;;
21810;SDS011;11067;48.788;9.208;2023-07-09T08:31:01;5.40;;;3.60;;
21810;SDS011;11067;48.788;9.208;2023-07-09T08:33:27;5.68;;;3.75;;
21810;SDS011;11067;48.788;9.208;2023-07-09T08:35:53;6.00;;;3.40;;
21810;SDS011;11067;48.788;9.208;2023-07-09T08:38:20;7.30;;;3.60;;
21810;SDS011;11067;48.788;9.208;2023-07-09T08:40:49;5.45;;;3.55;;
21810;SDS011;11067;48.788;9.208;2023-07-09T08:43:22;7.97;;;3.60;;
21810;SDS011;11067;48.788;9.208;2023-07-09T08:46:16;5.80;;;3.47;;
21810;SDS011;11067;48.788;9.208;2023-07-09T08:48:44;7.47;;;4.07;;
21810;SDS011;11067;48.788;9.208;2023-07-09T08:53:58;6.95;;;3.65;;
21810;SDS011;11067;48.788;9.208;2023-07-09T08:56:25;7.05;;;3.90;;
21810;SDS011;11067;48.788;9.208;2023-07-09T08:58:52;6.13;;;3.80;;
21810;SDS011;11067;48.788;9.208;2023-07-09T09:01:20;5.93;;;3.60;;
21810;SDS011;11067;48.788;9.208;2023-07-09T09:03:47;5.97;;;3.95;;
21810;SDS011;11067;48.788;9.208;2023-07-09T09:06:22;5.03;;;3.80;;
21810;SDS011;11067;48.788;9.208;2023-07-09T09:09:02;7.10;;;3.65;;
21810;SDS011;11067;48.788;9.208;2023-07-09T09:14:02;5.85;;;3.70;;
21810;SDS011;11067;48.788;9.208;2023-07-09T09:16:38;5.28;;;3.42;;
21810;SDS011;11067;48.788;9.208;2023-07-09T09:19:09;5.55;;;3.55;;
21810;SDS011;11067;48.788;9.208;2023-07-09T09:21:41;8.10;;;3.40;;
21810;SDS011;11067;48.788;9.208;2023-07-09T09:26:41;6.20;;;3.50;;
21810;SDS011;11067;48.788;9.208;2023-07-09T09:29:12;6.30;;;3.50;;
21810;SDS011;11067;48.788;9.208;2023-07-09T09:31:38;6.38;;;3.35;;
21810;SDS011;11067;48.788;9.208;2023-07-09T09:34:04;6.32;;;3.38;;
21810;SDS011;11067;48.788;9.208;2023-07-09T09:36:30;5.20;;;3.40;;
21810;SDS011;11067;48.788;9.208;2023-07-09T09:39:01;4.43;;;3.63;;
21810;SDS011;11067;48.788;9.208;2023-07-09T09:41:36;6.03;;;3.53;;
21810;SDS011;11067;48.788;9.208;2023-07-09T09:44:02;5.97;;;3.35;;
21810;SDS011;11067;48.788;9.208;2023-07-09T09:46:30;5.57;;;3.38;;
21810;SDS011;11067;48.788;9.208;2023-07-09T09:49:00;3.90;;;3.30;;
21810;SDS011;11067;48.788;9.208;2023-07-09T09:51:26;6.40;;;2.87;;
21810;SDS011;11067;48.788;9.208;2023-07-09T09:53:55;5.93;;;2.95;;
21810;SDS011;11067;48.788;9.208;2023-07-09T09:56:30;6.80;;;3.28;;
21810;SDS011;11067;48.788;9.208;2023-07-09T09:58:57;4.65;;;2.90;;
21810;SDS011;11067;48.788;9.208;2023-07-09T10:01:27;5.32;;;3.22;;
21810;SDS011;11067;48.788;9.208;2023-07-09T10:03:55;5.50;;;2.70;;
21810;SDS011;11067;48.788;9.208;2023-07-09T10:06:24;4.37;;;3.00;;
21810;SDS011;11067;48.788;9.208;2023-07-09T10:08:57;3.58;;;2.55;;
21810;SDS011;11067;48.788;9.208;2023-07-09T10:14:25;5.70;;;2.90;;
21810;SDS011;11067;48.788;9.208;2023-07-09T10:16:53;5.57;;;3.13;;
21810;SDS011;11067;48.788;9.208;2023-07-09T10:22:13;5.03;;;2.40;;
21810;SDS011;11067;48.788;9.208;2023-07-09T10:24:54;9.00;;;3.05;;
21810;SDS011;11067;48.788;9.208;2023-07-09T10:27:26;4.85;;;2.70;;
21810;SDS011;11067;48.788;9.208;2023-07-09T10:32:42;4.28;;;2.70;;
21810;SDS011;11067;48.788;9.208;2023-07-09T10:35:22;3.37;;;2.33;;
21810;SDS011;11067;48.788;9.208;2023-07-09T10:40:39;3.45;;;2.10;;
21810;SDS011;11067;48.788;9.208;2023-07-09T10:43:06;5.35;;;2.40;;
21810;SDS011;11067;48.788;9.208;2023-07-09T10:45:46;4.65;;;2.72;;
21810;SDS011;11067;48.788;9.208;2023-07-09T10:48:16;5.47;;;2.93;;
21810;SDS011;11067;48.788;9.208;2023-07-09T10:50:50;4.25;;;2.60;;
21810;SDS011;11067;48.788;9.208;2023-07-09T10:55:56;3.58;;;2.53;;
21810;SDS011;11067;48.788;9.208;2023-07-09T11:00:59;5.47;;;2.60;;
21810;SDS011;11067;48.788;9.208;2023-07-09T11:06:13;5.32;;;2.80;;
21810;SDS011;11067;48.788;9.208;2023-07-09T11:08:39;3.63;;;2.73;;
21810;SDS011;11067;48.788;9.208;2023-07-09T11:11:07;4.05;;;2.60;;
21810;SDS011;11067;48.788;9.208;2023-07-09T11:16:02;6.10;;;2.65;;
21810;SDS011;11067;48.788;9.208;2023-07-09T11:18:31;6.07;;;3.00;;
21810;SDS011;11067;48.788;9.208;2023-07-09T11:21:04;3.95;;;2.58;;
21810;SDS011;11067;48.788;9.208;2023-07-09T11:23:37;8.15;;;3.65;;
21810;SDS011;11067;48.788;9.208;2023-07-09T11:26:14;4.45;;;2.45;;
21810;SDS011;11067;48.788;9.208;2023-07-09T11:28:45;8.00;;;2.90;;
21810;SDS011;11067;48.788;9.208;2023-07-09T11:31:22;6.25;;;2.67;;
21810;SDS011;11067;48.788;9.208;2023-07-09T11:33:56;6.63;;;2.80;;
21810;SDS011;11067;48.788;9.208;2023-07-09T11:36:28;6.70;;;2.93;;
21810;SDS011;11067;48.788;9.208;2023-07-09T11:38:54;4.93;;;3.00;;
21810;SDS011;11067;48.788;9.208;2023-07-09T11:41:27;6.97;;;2.95;;
21810;SDS011;11067;48.788;9.208;2023-07-09T11:44:00;5.40;;;2.83;;
21810;SDS011;11067;48.788;9.208;2023-07-09T11:46:28;4.35;;;2.75;;
21810;SDS011;11067;48.788;9.208;2023-07-09T11:48:54;6.07;;;2.77;;
21810;SDS011;11067;48.788;9.208;2023-07-09T11:51:31;5.80;;;2.83;;
21810;SDS011;11067;48.788;9.208;2023-07-09T11:54:00;4.95;;;2.70;;
21810;SDS011;11067;48.788;9.208;2023-07-09T11:56:26;7.90;;;2.97;;
21810;SDS011;11067;48.788;9.208;2023-07-09T11:58:55;8.27;;;3.00;;
21810;SDS011;11067;48.788;9.208;2023-07-09T12:01:22;7.57;;;2.90;;
21810;SDS011;11067;48.788;9.208;2023-07-09T12:03:49;6.18;;;3.10;;
21810;SDS011;11067;48.788;9.208;2023-07-09T12:08:42;5.20;;;2.65;;
21810;SDS011;11067;48.788;9.208;2023-07-09T12:11:19;9.45;;;3.67;;
21810;SDS011;11067;48.788;9.208;2023-07-09T12:13:45;6.15;;;3.03;;
21810;SDS011;11067;48.788;9.208;2023-07-09T12:16:21;8.03;;;2.80;;
21810;SDS011;11067;48.788;9.208;2023-07-09T12:18:47;7.05;;;3.25;;
21810;SDS011;11067;48.788;9.208;2023-07-09T12:21:13;4.97;;;2.90;;
21810;SDS011;11067;48.788;9.208;2023-07-09T12:23:39;5.90;;;3.20;;
21810;SDS011;11067;48.788;9.208;2023-07-09T12:26:06;9.30;;;3.30;;
21810;SDS011;11067;48.788;9.208;2023-07-09T12:28:32;6.83;;;3.00;;
21810;SDS011;11067;48.788;9.208;2023-07-09T12:30:58;7.87;;;3.27;;
21810;SDS011;11067;48.788;9.208;2023-07-09T12:33:25;6.30;;;3.30;;
21810;SDS011;11067;48.788;9.208;2023-07-09T12:36:01;6.87;;;2.73;;
21810;SDS011;11067;48.788;9.208;2023-07-09T12:38:29;8.47;;;3.10;;
21810;SDS011;11067;48.788;9.208;2023-07-09T12:40:55;7.05;;;2.92;;
21810;SDS011;11067;48.788;9.208;2023-07-09T12:43:25;6.90;;;3.20;;
21810;SDS011;11067;48.788;9.208;2023-07-09T12:45:54;4.88;;;3.00;;
21810;SDS011;11067;48.788;9.208;2023-07-09T12:48:24;7.17;;;3.07;;
21810;SDS011;11067;48.788;9.208;2023-07-09T12:50:50;8.57;;;3.10;;
21810;SDS011;11067;48.788;9.208;2023-07-09T12:53:17;6.95;;;3.00;;
21810;SDS011;11067;48.788;9.208;2023-07-09T12:55:44;5.23;;;3.07;;
21810;SDS011;11067;48.788;9.208;2023-07-09T12:58:13;6.90;;;3.42;;
21810;SDS011;11067;48.788;9.208;2023-07-09T13:00:42;5.70;;;2.70;;
21810;SDS011;11067;48.788;9.208;2023-07-09T13:03:16;4.28;;;2.85;;
21810;SDS011;11067;48.788;9.208;2023-07-09T13:05:52;8.00;;;3.33;;
21810;SDS011;11067;48.788;9.208;2023-07-09T13:08:19;8.60;;;3.15;;
21810;SDS011;11067;48.788;9.208;2023-07-09T13:10:45;6.65;;;3.42;;
21810;SDS011;11067;48.788;9.208;2023-07-09T13:13:15;4.63;;;2.80;;
21810;SDS011;11067;48.788;9.208;2023-07-09T13:15:47;5.93;;;2.95;;
21810;SDS011;11067;48.788;9.208;2023-07-09T13:18:14;5.50;;;3.17;;
21810;SDS011;11067;48.788;9.208;2023-07-09T13:20:41;5.68;;;2.58;;
21810;SDS011;11067;48.788;9.208;2023-07-09T13:23:11;5.60;;;2.50;;
21810;SDS011;11067;48.788;9.208;2023-07-09T13:25:40;6.22;;;2.95;;
21810;SDS011;11067;48.788;9.208;2023-07-09T13:28:19;6.80;;;2.80;;
21810;SDS011;11067;48.788;9.208;2023-07-09T13:30:46;6.13;;;2.42;;
21810;SDS011;11067;48.788;9.208;2023-07-09T13:33:12;7.70;;;2.47;;
21810;SDS011;11067;48.788;9.208;2023-07-09T13:35:38;7.93;;;2.80;;
21810;SDS011;11067;48.788;9.208;2023-07-09T13:38:17;6.15;;;2.47;;
21810;SDS011;11067;48.788;9.208;2023-07-09T13:40:44;7.20;;;2.70;;
21810;SDS011;11067;48.788;9.208;2023-07-09T13:43:13;7.07;;;2.63;;
21810;SDS011;11067;48.788;9.208;2023-07-09T13:45:40;4.25;;;2.33;;
21810;SDS011;11067;48.788;9.208;2023-07-09T13:48:13;5.88;;;2.50;;
21810;SDS011;11067;48.788;9.208;2023-07-09T13:50:40;4.53;;;2.63;;
21810;SDS011;11067;48.788;9.208;2023-07-09T13:53:11;4.30;;;2.40;;
21810;SDS011;11067;48.788;9.208;2023-07-09T13:55:37;7.10;;;2.53;;
21810;SDS011;11067;48.788;9.208;2023-07-09T13:58:03;6.07;;;2.75;;
21810;SDS011;11067;48.788;9.208;2023-07-09T14:00:29;7.10;;;2.80;;
21810;SDS011;11067;48.788;9.208;2023-07-09T14:02:55;6.85;;;2.70;;
21810;SDS011;11067;48.788;9.208;2023-07-09T14:05:21;7.18;;;2.60;;
21810;SDS011;11067;48.788;9.208;2023-07-09T14:07:48;7.03;;;3.08;;
21810;SDS011;11067;48.788;9.208;2023-07-09T14:10:14;5.97;;;2.77;;
21810;SDS011;11067;48.788;9.208;2023-07-09T14:12:43;6.67;;;3.00;;
21810;SDS011;11067;48.788;9.208;2023-07-09T14:15:14;4.05;;;2.60;;
21810;SDS011;11067;48.788;9.208;2023-07-09T14:17:40;6.78;;;3.00;;
21810;SDS011;11067;48.788;9.208;2023-07-09T14:20:10;7.18;;;2.90;;
21810;SDS011;11067;48.788;9.208;2023-07-09T14:22:36;7.50;;;2.77;;
21810;SDS011;11067;48.788;9.208;2023-07-09T14:25:03;4.45;;;2.67;;
21810;SDS011;11067;48.788;9.208;2023-07-09T14:27:29;4.13;;;2.60;;
21810;SDS011;11067;48.788;9.208;2023-07-09T14:29:55;4.90;;;2.97;;
21810;SDS011;11067;48.788;9.208;2023-07-09T14:34:56;4.88;;;3.17;;
21810;SDS011;11067;48.788;9.208;2023-07-09T14:37:22;4.57;;;3.30;;
21810;SDS011;11067;48.788;9.208;2023-07-09T14:39:48;4.90;;;2.63;;
21810;SDS011;11067;48.788;9.208;2023-07-09T14:42:14;5.33;;;3.10;;
21810;SDS011;11067;48.788;9.208;2023-07-09T14:44:41;7.10;;;3.07;;
21810;SDS011;11067;48.788;9.208;2023-07-09T14:47:10;6.00;;;2.83;;
21810;SDS011;11067;48.788;9.208;2023-07-09T14:49:38;5.10;;;3.07;;
21810;SDS011;11067;48.788;9.208;2023-07-09T14:52:05;5.35;;;2.78;;
21810;SDS011;11067;48.788;9.208;2023-07-09T14:54:31;7.35;;;2.80;;
21810;SDS011;11067;48.788;9.208;2023-07-09T14:56:57;4.43;;;2.73;;
21810;SDS011;11067;48.788;9.208;2023-07-09T14:59:24;6.60;;;2.70;;
21810;SDS011;11067;48.788;9.208;2023-07-09T15:01:50;7.78;;;3.20;;
21810;SDS011;11067;48.788;9.208;2023-07-09T15:04:32;8.10;;;3.22;;
21810;SDS011;11067;48.788;9.208;2023-07-09T15:06:59;5.83;;;2.90;;
21810;SDS011;11067;48.788;9.208;2023-07-09T15:09:26;6.67;;;2.77;;
21810;SDS011;11067;48.788;9.208;2023-07-09T15:11:53;4.78;;;2.90;;
21810;SDS011;11067;48.788;9.208;2023-07-09T15:14:19;6.20;;;2.45;;
21810;SDS011;11067;48.788;9.208;2023-07-09T15:16:46;5.57;;;2.83;;
21810;SDS011;11067;48.788;9.208;2023-07-09T15:19:15;5.07;;;2.70;;
21810;SDS011;11067;48.788;9.208;2023-07-09T15:21:41;5.45;;;2.58;;
21810;SDS011;11067;48.788;9.208;2023-07-09T15:24:10;3.77;;;2.47;;
21810;SDS011;11067;48.788;9.208;2023-07-09T15:26:37;3.90;;;2.58;;
21810;SDS011;11067;48.788;9.208;2023-07-09T15:29:02;4.20;;;2.60;;